sensor_id;sensor_type;location;lat;lon;timestamp;pressure;altitude;pressure_sealevel;temperature;humidity
2036;BME280;23642;42.658;23.350;2023-10-09T00:01:03;54999.50;;;-146.31;57.65
2036;BME280;23642;42.658;23.350;2023-10-09T00:03:39;54991.25;;;-146.31;57.78
2036;BME280;23642;42.658;23.350;2023-10-09T00:06:06;55018.09;;;-146.31;57.78
2036;BME280;23642;42.658;23.350;2023-10-09T00:08:35;55011.91;;;-146.31;57.97
2036;BME280;23642;42.658;23.350;2023-10-09T00:11:04;55013.97;;;-146.31;57.90
2036;BME280;23642;42.658;23.350;2023-10-09T00:13:42;55018.09;;;-146.31;57.84
2036;BME280;23642;42.658;23.350;2023-10-09T00:16:18;55022.22;;;-146.31;58.01
2036;BME280;23642;42.658;23.350;2023-10-09T00:18:58;55016.03;;;-146.31;58.28
2036;BME280;23642;42.658;23.350;2023-10-09T00:21:39;54991.25;;;-146.31;58.58
2036;BME280;23642;42.658;23.350;2023-10-09T00:24:06;55020.16;;;-146.31;58.25
2036;BME280;23642;42.658;23.350;2023-10-09T00:26:39;55018.09;;;-146.31;58.51
2036;BME280;23642;42.658;23.350;2023-10-09T00:29:11;55042.88;;;-146.31;58.37
2036;BME280;23642;42.658;23.350;2023-10-09T00:31:42;55055.28;;;-146.31;58.52
2036;BME280;23642;42.658;23.350;2023-10-09T00:34:16;55042.88;;;-146.31;59.06
2036;BME280;23642;42.658;23.350;2023-10-09T00:36:45;55051.13;;;-146.31;59.10
2036;BME280;23642;42.658;23.350;2023-10-09T00:39:16;55044.94;;;-146.31;59.03
2036;BME280;23642;42.658;23.350;2023-10-09T00:41:57;55051.13;;;-146.31;59.58
2036;BME280;23642;42.658;23.350;2023-10-09T00:44:26;55063.53;;;-146.31;59.41
2036;BME280;23642;42.658;23.350;2023-10-09T00:47:05;55057.34;;;-146.31;59.48
2036;BME280;23642;42.658;23.350;2023-10-09T00:49:47;55061.47;;;-146.31;59.68
2036;BME280;23642;42.658;23.350;2023-10-09T00:52:15;55069.72;;;-146.31;59.93
2036;BME280;23642;42.658;23.350;2023-10-09T00:54:54;55063.53;;;-146.31;60.06
2036;BME280;23642;42.658;23.350;2023-10-09T00:57:29;55088.31;;;-146.31;60.12
2036;BME280;23642;42.658;23.350;2023-10-09T00:59:58;55063.53;;;-146.31;59.77
2036;BME280;23642;42.658;23.350;2023-10-09T01:02:28;55065.59;;;-146.31;59.70
2036;BME280;23642;42.658;23.350;2023-10-09T01:05:03;55069.72;;;-146.31;59.99
2036;BME280;23642;42.658;23.350;2023-10-09T01:07:46;55075.91;;;-146.31;60.43
2036;BME280;23642;42.658;23.350;2023-10-09T01:10:14;55063.53;;;-146.31;60.34
2036;BME280;23642;42.658;23.350;2023-10-09T01:12:42;55063.53;;;-146.31;60.30
2036;BME280;23642;42.658;23.350;2023-10-09T01:15:12;55088.31;;;-146.31;60.36
2036;BME280;23642;42.658;23.350;2023-10-09T01:18:04;55090.38;;;-146.31;60.02
2036;BME280;23642;42.658;23.350;2023-10-09T01:20:33;55088.31;;;-146.31;59.95
2036;BME280;23642;42.658;23.350;2023-10-09T01:23:10;55123.44;;;-146.31;59.75
2036;BME280;23642;42.658;23.350;2023-10-09T01:25:37;55133.75;;;-146.31;60.00
2036;BME280;23642;42.658;23.350;2023-10-09T01:28:10;55131.69;;;-146.31;59.88
2036;BME280;23642;42.658;23.350;2023-10-09T01:30:42;55152.34;;;-146.31;59.91
2036;BME280;23642;42.658;23.350;2023-10-09T01:33:09;55156.47;;;-146.31;59.65
2036;BME280;23642;42.658;23.350;2023-10-09T01:35:48;55164.72;;;-146.31;59.85
2036;BME280;23642;42.658;23.350;2023-10-09T01:38:17;55170.94;;;-146.31;60.15
2036;BME280;23642;42.658;23.350;2023-10-09T01:40:56;55173.00;;;-146.31;60.33
2036;BME280;23642;42.658;23.350;2023-10-09T01:43:29;55164.72;;;-146.31;60.46
2036;BME280;23642;42.658;23.350;2023-10-09T01:46:00;55173.00;;;-146.31;60.80
2036;BME280;23642;42.658;23.350;2023-10-09T01:48:29;55203.97;;;-146.31;61.13
2036;BME280;23642;42.658;23.350;2023-10-09T01:50:58;55187.44;;;-146.31;61.29
2036;BME280;23642;42.658;23.350;2023-10-09T01:53:27;55210.16;;;-146.31;61.26
2036;BME280;23642;42.658;23.350;2023-10-09T01:55:55;55199.84;;;-146.31;61.40
2036;BME280;23642;42.658;23.350;2023-10-09T01:58:24;55193.66;;;-146.31;61.65
2036;BME280;23642;42.658;23.350;2023-10-09T02:00:57;55210.16;;;-146.31;62.41
2036;BME280;23642;42.658;23.350;2023-10-09T02:03:27;55206.03;;;-146.31;62.39
2036;BME280;23642;42.658;23.350;2023-10-09T02:05:58;55195.72;;;-146.31;62.65
2036;BME280;23642;42.658;23.350;2023-10-09T02:08:26;55193.66;;;-146.31;62.98
2036;BME280;23642;42.658;23.350;2023-10-09T02:11:01;55203.97;;;-146.31;62.85
2036;BME280;23642;42.658;23.350;2023-10-09T02:13:29;55193.66;;;-146.31;62.83
2036;BME280;23642;42.658;23.350;2023-10-09T02:15:57;55210.16;;;-146.31;62.83
2036;BME280;23642;42.658;23.350;2023-10-09T02:18:39;55226.69;;;-146.31;63.05
2036;BME280;23642;42.658;23.350;2023-10-09T02:21:18;55197.78;;;-146.31;63.09
2036;BME280;23642;42.658;23.350;2023-10-09T02:23:55;55210.16;;;-146.31;63.23
2036;BME280;23642;42.658;23.350;2023-10-09T02:26:23;55191.56;;;-146.31;63.58
2036;BME280;23642;42.658;23.350;2023-10-09T02:28:53;55216.34;;;-146.31;63.55
2036;BME280;23642;42.658;23.350;2023-10-09T02:31:24;55220.50;;;-146.31;63.65
2036;BME280;23642;42.658;23.350;2023-10-09T02:33:53;55226.69;;;-146.31;63.75
2036;BME280;23642;42.658;23.350;2023-10-09T02:36:21;55212.22;;;-146.31;63.73
2036;BME280;23642;42.658;23.350;2023-10-09T02:38:48;55203.97;;;-146.31;63.80
2036;BME280;23642;42.658;23.350;2023-10-09T02:41:20;55228.75;;;-146.31;63.66
2036;BME280;23642;42.658;23.350;2023-10-09T02:43:48;55239.06;;;-146.31;64.02
2036;BME280;23642;42.658;23.350;2023-10-09T02:46:17;55224.63;;;-146.31;64.03
2036;BME280;23642;42.658;23.350;2023-10-09T02:48:45;55224.63;;;-146.31;64.28
2036;BME280;23642;42.658;23.350;2023-10-09T02:51:17;55201.91;;;-146.31;64.58
2036;BME280;23642;42.658;23.350;2023-10-09T02:53:58;55224.63;;;-146.31;64.88
2036;BME280;23642;42.658;23.350;2023-10-09T02:56:31;55208.09;;;-146.31;65.47
2036;BME280;23642;42.658;23.350;2023-10-09T02:59:03;55206.03;;;-146.31;65.14
2036;BME280;23642;42.658;23.350;2023-10-09T03:01:32;55220.50;;;-146.31;65.33
2036;BME280;23642;42.658;23.350;2023-10-09T03:04:03;55189.50;;;-146.31;65.55
2036;BME280;23642;42.658;23.350;2023-10-09T03:06:31;55226.69;;;-146.31;65.43
2036;BME280;23642;42.658;23.350;2023-10-09T03:08:59;55232.88;;;-146.31;65.44
2036;BME280;23642;42.658;23.350;2023-10-09T03:11:26;55210.16;;;-146.31;65.18
2036;BME280;23642;42.658;23.350;2023-10-09T03:13:54;55222.56;;;-146.31;65.48
2036;BME280;23642;42.658;23.350;2023-10-09T03:16:21;55203.97;;;-146.31;66.08
2036;BME280;23642;42.658;23.350;2023-10-09T03:18:50;55216.34;;;-146.31;66.30
2036;BME280;23642;42.658;23.350;2023-10-09T03:21:17;55214.28;;;-146.31;66.73
2036;BME280;23642;42.658;23.350;2023-10-09T03:23:45;55168.84;;;-146.31;67.13
2036;BME280;23642;42.658;23.350;2023-10-09T03:26:15;55123.44;;;-146.31;67.11
2036;BME280;23642;42.658;23.350;2023-10-09T03:28:43;55098.63;;;-146.31;66.90
2036;BME280;23642;42.658;23.350;2023-10-09T03:31:12;55096.56;;;-146.31;66.62
2036;BME280;23642;42.658;23.350;2023-10-09T03:33:39;55094.50;;;-146.31;66.62
2036;BME280;23642;42.658;23.350;2023-10-09T03:36:06;55094.50;;;-146.31;66.89
2036;BME280;23642;42.658;23.350;2023-10-09T03:38:36;55102.78;;;-146.31;66.80
2036;BME280;23642;42.658;23.350;2023-10-09T03:41:04;55111.03;;;-146.31;67.06
2036;BME280;23642;42.658;23.350;2023-10-09T03:43:32;55092.44;;;-146.31;67.55
2036;BME280;23642;42.658;23.350;2023-10-09T03:46:03;55073.84;;;-146.31;67.43
2036;BME280;23642;42.658;23.350;2023-10-09T03:48:32;55084.19;;;-146.31;67.24
2036;BME280;23642;42.658;23.350;2023-10-09T03:51:02;55090.38;;;-146.31;67.16
2036;BME280;23642;42.658;23.350;2023-10-09T03:53:35;55098.63;;;-146.31;67.43
2036;BME280;23642;42.658;23.350;2023-10-09T03:56:05;55067.66;;;-146.31;68.15
2036;BME280;23642;42.658;23.350;2023-10-09T03:58:38;55055.28;;;-146.31;67.80
2036;BME280;23642;42.658;23.350;2023-10-09T04:01:07;55042.88;;;-146.31;67.73
2036;BME280;23642;42.658;23.350;2023-10-09T04:03:36;55040.81;;;-146.31;67.51
2036;BME280;23642;42.658;23.350;2023-10-09T04:06:04;55032.56;;;-146.31;67.43
2036;BME280;23642;42.658;23.350;2023-10-09T04:08:33;55022.22;;;-146.31;67.42
2036;BME280;23642;42.658;23.350;2023-10-09T04:11:01;55067.66;;;-146.31;67.25
2036;BME280;23642;42.658;23.350;2023-10-09T04:13:31;55018.09;;;-146.31;67.61
2036;BME280;23642;42.658;23.350;2023-10-09T04:16:01;55047.00;;;-146.31;67.54
2036;BME280;23642;42.658;23.350;2023-10-09T04:18:37;55055.28;;;-146.31;66.95
2036;BME280;23642;42.658;23.350;2023-10-09T04:21:05;55063.53;;;-146.31;66.66
2036;BME280;23642;42.658;23.350;2023-10-09T04:23:44;55063.53;;;-146.31;66.05
2036;BME280;23642;42.658;23.350;2023-10-09T04:26:35;55075.91;;;-146.31;65.83
2036;BME280;23642;42.658;23.350;2023-10-09T04:29:03;55125.50;;;-146.31;63.95
2036;BME280;23642;42.658;23.350;2023-10-09T04:31:30;55148.22;;;-146.31;64.25
2036;BME280;23642;42.658;23.350;2023-10-09T04:34:04;55150.28;;;-146.31;64.36
2036;BME280;23642;42.658;23.350;2023-10-09T04:36:50;55158.53;;;-146.31;62.86
2036;BME280;23642;42.658;23.350;2023-10-09T04:39:22;55170.94;;;-146.31;63.18
2036;BME280;23642;42.658;23.350;2023-10-09T04:42:12;55177.13;;;-146.31;62.65
2036;BME280;23642;42.658;23.350;2023-10-09T04:45:04;55195.72;;;-146.31;63.00
2036;BME280;23642;42.658;23.350;2023-10-09T04:48:06;55195.72;;;-146.31;63.63
2036;BME280;23642;42.658;23.350;2023-10-09T04:50:36;55208.09;;;-146.31;62.82
2036;BME280;23642;42.658;23.350;2023-10-09T04:53:12;55228.75;;;-146.31;61.28
2036;BME280;23642;42.658;23.350;2023-10-09T04:55:50;55228.75;;;-146.31;61.80
2036;BME280;23642;42.658;23.350;2023-10-09T04:58:30;55222.56;;;-146.31;61.89
2036;BME280;23642;42.658;23.350;2023-10-09T05:00:58;55249.41;;;-146.31;61.55
2036;BME280;23642;42.658;23.350;2023-10-09T05:03:40;55257.66;;;-146.31;60.92
2036;BME280;23642;42.658;23.350;2023-10-09T05:06:13;55253.53;;;-146.31;60.51
2036;BME280;23642;42.658;23.350;2023-10-09T05:08:57;55294.84;;;-146.31;59.78
2036;BME280;23642;42.658;23.350;2023-10-09T05:11:34;55278.31;;;-146.31;59.43
2036;BME280;23642;42.658;23.350;2023-10-09T05:14:00;55292.78;;;-146.31;58.77
2036;BME280;23642;42.658;23.350;2023-10-09T05:16:40;55303.09;;;-146.31;59.28
2036;BME280;23642;42.658;23.350;2023-10-09T05:19:20;55329.94;;;-146.31;58.79
2036;BME280;23642;42.658;23.350;2023-10-09T05:22:00;55323.75;;;-146.31;58.03
2036;BME280;23642;42.658;23.350;2023-10-09T05:24:33;55327.88;;;-146.31;57.40
2036;BME280;23642;42.658;23.350;2023-10-09T05:27:09;55327.88;;;-146.31;57.88
2036;BME280;23642;42.658;23.350;2023-10-09T05:29:44;55325.81;;;-146.31;57.68
2036;BME280;23642;42.658;23.350;2023-10-09T05:32:25;55358.88;;;-146.31;57.17
2036;BME280;23642;42.658;23.350;2023-10-09T05:34:55;55365.06;;;-146.31;57.32
2036;BME280;23642;42.658;23.350;2023-10-09T05:37:42;55360.94;;;-146.31;56.68
2036;BME280;23642;42.658;23.350;2023-10-09T05:40:12;55383.66;;;-146.31;56.54
2036;BME280;23642;42.658;23.350;2023-10-09T05:42:56;55373.31;;;-146.31;56.29
2036;BME280;23642;42.658;23.350;2023-10-09T05:45:28;55373.31;;;-146.31;56.27
2036;BME280;23642;42.658;23.350;2023-10-09T05:48:12;55369.19;;;-146.31;56.16
2036;BME280;23642;42.658;23.350;2023-10-09T05:50:57;55358.88;;;-146.31;56.13
2036;BME280;23642;42.658;23.350;2023-10-09T05:54:00;55352.66;;;-146.31;55.83
2036;BME280;23642;42.658;23.350;2023-10-09T05:57:08;55406.38;;;-146.31;55.14
2036;BME280;23642;42.658;23.350;2023-10-09T05:59:53;55404.31;;;-146.31;55.07
2036;BME280;23642;42.658;23.350;2023-10-09T06:02:39;55406.38;;;-146.31;55.09
2036;BME280;23642;42.658;23.350;2023-10-09T06:05:20;55416.69;;;-146.31;53.79
2036;BME280;23642;42.658;23.350;2023-10-09T06:08:04;55408.44;;;-146.31;53.50
2036;BME280;23642;42.658;23.350;2023-10-09T06:10:34;55406.38;;;-146.31;53.87
2036;BME280;23642;42.658;23.350;2023-10-09T06:13:08;55429.09;;;-146.31;52.94
2036;BME280;23642;42.658;23.350;2023-10-09T06:15:56;55406.38;;;-146.31;52.79
2036;BME280;23642;42.658;23.350;2023-10-09T06:18:39;55451.81;;;-146.31;51.99
2036;BME280;23642;42.658;23.350;2023-10-09T06:21:07;55445.63;;;-146.31;51.76
2036;BME280;23642;42.658;23.350;2023-10-09T06:23:58;55420.84;;;-146.31;52.32
2036;BME280;23642;42.658;23.350;2023-10-09T06:26:42;55451.81;;;-146.31;51.62
2036;BME280;23642;42.658;23.350;2023-10-09T06:29:17;55443.56;;;-146.31;50.71
2036;BME280;23642;42.658;23.350;2023-10-09T06:31:59;55451.81;;;-146.31;50.88
2036;BME280;23642;42.658;23.350;2023-10-09T06:34:43;55445.63;;;-146.31;50.31
2036;BME280;23642;42.658;23.350;2023-10-09T06:37:10;55460.06;;;-146.31;49.55
2036;BME280;23642;42.658;23.350;2023-10-09T06:40:00;55495.19;;;-146.31;49.26
2036;BME280;23642;42.658;23.350;2023-10-09T06:42:45;55493.13;;;-146.31;48.99
2036;BME280;23642;42.658;23.350;2023-10-09T06:45:17;55482.78;;;-146.31;49.62
2036;BME280;23642;42.658;23.350;2023-10-09T06:47:47;55503.44;;;-146.31;49.67
2036;BME280;23642;42.658;23.350;2023-10-09T06:50:21;55464.22;;;-146.31;49.48
2036;BME280;23642;42.658;23.350;2023-10-09T06:52:51;55482.78;;;-146.31;48.34
2036;BME280;23642;42.658;23.350;2023-10-09T06:55:24;55491.06;;;-146.31;47.95
2036;BME280;23642;42.658;23.350;2023-10-09T06:58:02;55472.47;;;-146.31;47.99
2036;BME280;23642;42.658;23.350;2023-10-09T07:00:38;55451.81;;;-146.31;47.64
2036;BME280;23642;42.658;23.350;2023-10-09T07:03:26;55464.22;;;-146.31;47.51
2036;BME280;23642;42.658;23.350;2023-10-09T07:06:03;55480.72;;;-146.31;47.29
2036;BME280;23642;42.658;23.350;2023-10-09T07:08:35;55501.38;;;-146.31;47.18
2036;BME280;23642;42.658;23.350;2023-10-09T07:11:03;55522.03;;;-146.31;47.02
2036;BME280;23642;42.658;23.350;2023-10-09T07:13:46;55532.38;;;-146.31;46.12
2036;BME280;23642;42.658;23.350;2023-10-09T07:16:22;55526.16;;;-146.31;45.89
2036;BME280;23642;42.658;23.350;2023-10-09T07:18:55;55524.09;;;-146.31;45.42
2036;BME280;23642;42.658;23.350;2023-10-09T07:21:38;55550.97;;;-146.31;44.56
2036;BME280;23642;42.658;23.350;2023-10-09T07:24:17;55573.69;;;-146.31;44.30
2036;BME280;23642;42.658;23.350;2023-10-09T07:26:49;55596.41;;;-146.31;43.88
2036;BME280;23642;42.658;23.350;2023-10-09T07:29:20;55594.34;;;-146.31;44.14
2036;BME280;23642;42.658;23.350;2023-10-09T07:31:49;55612.91;;;-146.31;43.43
2036;BME280;23642;42.658;23.350;2023-10-09T07:34:23;55588.13;;;-146.31;43.96
2036;BME280;23642;42.658;23.350;2023-10-09T07:37:19;55602.59;;;-146.31;44.29
2036;BME280;23642;42.658;23.350;2023-10-09T07:39:49;55612.91;;;-146.31;43.67
2036;BME280;23642;42.658;23.350;2023-10-09T07:42:23;55615.00;;;-146.31;43.99
2036;BME280;23642;42.658;23.350;2023-10-09T07:45:00;55600.53;;;-146.31;43.56
2036;BME280;23642;42.658;23.350;2023-10-09T07:47:38;55631.50;;;-146.31;43.01
2036;BME280;23642;42.658;23.350;2023-10-09T07:50:19;55648.03;;;-146.31;43.49
2036;BME280;23642;42.658;23.350;2023-10-09T07:52:47;55645.97;;;-146.31;42.93
2036;BME280;23642;42.658;23.350;2023-10-09T07:55:17;55633.56;;;-146.31;43.15
2036;BME280;23642;42.658;23.350;2023-10-09T07:57:55;55629.44;;;-146.31;42.50
2036;BME280;23642;42.658;23.350;2023-10-09T08:00:44;55670.75;;;-146.31;41.84
2036;BME280;23642;42.658;23.350;2023-10-09T08:03:29;55666.63;;;-146.31;41.75
2036;BME280;23642;42.658;23.350;2023-10-09T08:06:11;55672.81;;;-146.31;41.91
2036;BME280;23642;42.658;23.350;2023-10-09T08:09:02;55666.63;;;-146.31;41.69
2036;BME280;23642;42.658;23.350;2023-10-09T08:12:01;55648.03;;;-146.31;42.63
2036;BME280;23642;42.658;23.350;2023-10-09T08:14:59;55658.38;;;-146.31;42.05
2036;BME280;23642;42.658;23.350;2023-10-09T08:17:47;55660.44;;;-146.31;41.93
2036;BME280;23642;42.658;23.350;2023-10-09T08:20:17;55679.03;;;-146.31;41.82
2036;BME280;23642;42.658;23.350;2023-10-09T08:22:51;55641.84;;;-146.31;41.88
2036;BME280;23642;42.658;23.350;2023-10-09T08:25:18;55710.00;;;-146.31;39.36
2036;BME280;23642;42.658;23.350;2023-10-09T08:27:59;55718.28;;;-146.31;40.19
2036;BME280;23642;42.658;23.350;2023-10-09T08:30:41;55683.16;;;-146.31;40.23
2036;BME280;23642;42.658;23.350;2023-10-09T08:33:16;55683.16;;;-146.31;40.64
2036;BME280;23642;42.658;23.350;2023-10-09T08:36:00;55705.88;;;-146.31;39.82
2036;BME280;23642;42.658;23.350;2023-10-09T08:38:34;55714.13;;;-146.31;40.70
2036;BME280;23642;42.658;23.350;2023-10-09T08:41:11;55699.69;;;-146.31;40.82
2036;BME280;23642;42.658;23.350;2023-10-09T08:43:49;55687.28;;;-146.31;40.44
2036;BME280;23642;42.658;23.350;2023-10-09T08:46:22;55707.94;;;-146.31;39.28
2036;BME280;23642;42.658;23.350;2023-10-09T08:48:54;55703.81;;;-146.31;39.79
2036;BME280;23642;42.658;23.350;2023-10-09T08:51:24;55697.63;;;-146.31;40.12
2036;BME280;23642;42.658;23.350;2023-10-09T08:53:51;55666.63;;;-146.31;39.67
2036;BME280;23642;42.658;23.350;2023-10-09T08:56:18;55687.28;;;-146.31;39.69
2036;BME280;23642;42.658;23.350;2023-10-09T08:58:52;55664.56;;;-146.31;39.57
2036;BME280;23642;42.658;23.350;2023-10-09T09:01:20;55674.88;;;-146.31;39.43
2036;BME280;23642;42.658;23.350;2023-10-09T09:03:58;55674.88;;;-146.31;38.70
2036;BME280;23642;42.658;23.350;2023-10-09T09:06:36;55714.13;;;-146.31;38.14
2036;BME280;23642;42.658;23.350;2023-10-09T09:09:10;55685.22;;;-146.31;38.02
2036;BME280;23642;42.658;23.350;2023-10-09T09:11:41;55679.03;;;-146.31;38.36
2036;BME280;23642;42.658;23.350;2023-10-09T09:14:14;55693.47;;;-146.31;37.19
2036;BME280;23642;42.658;23.350;2023-10-09T09:16:45;55716.19;;;-146.31;37.22
2036;BME280;23642;42.658;23.350;2023-10-09T09:19:15;55726.53;;;-146.31;37.17
2036;BME280;23642;42.658;23.350;2023-10-09T09:21:48;55728.59;;;-146.31;36.23
2036;BME280;23642;42.658;23.350;2023-10-09T09:24:20;55695.53;;;-146.31;36.37
2036;BME280;23642;42.658;23.350;2023-10-09T09:27:01;55703.81;;;-146.31;36.54
2036;BME280;23642;42.658;23.350;2023-10-09T09:29:39;55695.53;;;-146.31;36.22
2036;BME280;23642;42.658;23.350;2023-10-09T09:32:07;55724.47;;;-146.31;35.56
2036;BME280;23642;42.658;23.350;2023-10-09T09:34:47;55699.69;;;-146.31;35.62
2036;BME280;23642;42.658;23.350;2023-10-09T09:37:21;55707.94;;;-146.31;35.55
2036;BME280;23642;42.658;23.350;2023-10-09T09:39:54;55724.47;;;-146.31;35.09
2036;BME280;23642;42.658;23.350;2023-10-09T09:42:24;55728.59;;;-146.31;35.54
2036;BME280;23642;42.658;23.350;2023-10-09T09:44:53;55720.34;;;-146.31;35.23
2036;BME280;23642;42.658;23.350;2023-10-09T09:47:29;55714.13;;;-146.31;35.33
2036;BME280;23642;42.658;23.350;2023-10-09T09:52:50;55681.09;;;-146.31;34.61
2036;BME280;23642;42.658;23.350;2023-10-09T09:55:23;55712.06;;;-146.31;34.10
2036;BME280;23642;42.658;23.350;2023-10-09T09:58:01;55716.19;;;-146.31;34.71
2036;BME280;23642;42.658;23.350;2023-10-09T10:00:33;55712.06;;;-146.31;34.28
2036;BME280;23642;42.658;23.350;2023-10-09T10:03:12;55724.47;;;-146.31;33.17
2036;BME280;23642;42.658;23.350;2023-10-09T10:05:43;55710.00;;;-146.31;33.22
2036;BME280;23642;42.658;23.350;2023-10-09T10:08:15;55705.88;;;-146.31;33.22
2036;BME280;23642;42.658;23.350;2023-10-09T10:10:45;55687.28;;;-146.31;33.34
2036;BME280;23642;42.658;23.350;2023-10-09T10:16:26;55691.41;;;-146.31;33.30
2036;BME280;23642;42.658;23.350;2023-10-09T10:19:03;55697.63;;;-146.31;33.25
2036;BME280;23642;42.658;23.350;2023-10-09T10:22:23;55720.34;;;-146.31;33.05
2036;BME280;23642;42.658;23.350;2023-10-09T10:24:52;55724.47;;;-146.31;32.86
2036;BME280;23642;42.658;23.350;2023-10-09T10:27:23;55724.47;;;-146.31;33.20
2036;BME280;23642;42.658;23.350;2023-10-09T10:30:27;55695.53;;;-146.31;33.39
2036;BME280;23642;42.658;23.350;2023-10-09T10:33:00;55728.59;;;-146.31;32.16
2036;BME280;23642;42.658;23.350;2023-10-09T10:35:36;55707.94;;;-146.31;32.23
2036;BME280;23642;42.658;23.350;2023-10-09T10:38:28;55728.59;;;-146.31;31.78
2036;BME280;23642;42.658;23.350;2023-10-09T10:41:16;55699.69;;;-146.31;31.78
2036;BME280;23642;42.658;23.350;2023-10-09T10:43:43;55724.47;;;-146.31;31.72
2036;BME280;23642;42.658;23.350;2023-10-09T10:46:46;55705.88;;;-146.31;31.93
2036;BME280;23642;42.658;23.350;2023-10-09T10:49:18;55697.63;;;-146.31;31.97
2036;BME280;23642;42.658;23.350;2023-10-09T10:51:50;55699.69;;;-146.31;32.36
2036;BME280;23642;42.658;23.350;2023-10-09T10:54:33;55664.56;;;-146.31;32.00
2036;BME280;23642;42.658;23.350;2023-10-09T10:57:17;55672.81;;;-146.31;32.00
2036;BME280;23642;42.658;23.350;2023-10-09T10:59:45;55666.63;;;-146.31;31.67
2036;BME280;23642;42.658;23.350;2023-10-09T11:02:16;55668.69;;;-146.31;31.90
2036;BME280;23642;42.658;23.350;2023-10-09T11:04:48;55666.63;;;-146.31;32.54
2036;BME280;23642;42.658;23.350;2023-10-09T11:07:21;55627.38;;;-146.31;32.02
2036;BME280;23642;42.658;23.350;2023-10-09T11:09:54;55645.97;;;-146.31;31.45
2036;BME280;23642;42.658;23.350;2023-10-09T11:12:43;55662.50;;;-146.31;32.20
2036;BME280;23642;42.658;23.350;2023-10-09T11:15:32;55639.78;;;-146.31;32.27
2036;BME280;23642;42.658;23.350;2023-10-09T11:18:10;55635.66;;;-146.31;32.41
2036;BME280;23642;42.658;23.350;2023-10-09T11:20:51;55650.09;;;-146.31;32.20
2036;BME280;23642;42.658;23.350;2023-10-09T11:23:52;55641.84;;;-146.31;31.57
2036;BME280;23642;42.658;23.350;2023-10-09T11:26:52;55639.78;;;-146.31;31.97
2036;BME280;23642;42.658;23.350;2023-10-09T11:29:48;55648.03;;;-146.31;32.18
2036;BME280;23642;42.658;23.350;2023-10-09T11:32:49;55639.78;;;-146.31;31.89
2036;BME280;23642;42.658;23.350;2023-10-09T11:35:33;55625.31;;;-146.31;32.17
2036;BME280;23642;42.658;23.350;2023-10-09T11:38:09;55658.38;;;-146.31;31.42
2036;BME280;23642;42.658;23.350;2023-10-09T11:41:03;55635.66;;;-146.31;31.64
2036;BME280;23642;42.658;23.350;2023-10-09T11:44:14;55629.44;;;-146.31;31.60
2036;BME280;23642;42.658;23.350;2023-10-09T11:46:57;55608.78;;;-146.31;31.40
2036;BME280;23642;42.658;23.350;2023-10-09T11:49:49;55652.16;;;-146.31;31.37
2036;BME280;23642;42.658;23.350;2023-10-09T11:53:02;55650.09;;;-146.31;31.29
2036;BME280;23642;42.658;23.350;2023-10-09T11:56:39;55645.97;;;-146.31;31.08
2036;BME280;23642;42.658;23.350;2023-10-09T11:59:24;55596.41;;;-146.31;30.84
2036;BME280;23642;42.658;23.350;2023-10-09T12:02:06;55596.41;;;-146.31;30.68
2036;BME280;23642;42.658;23.350;2023-10-09T12:05:01;55592.28;;;-146.31;30.73
2036;BME280;23642;42.658;23.350;2023-10-09T12:10:53;55573.69;;;-146.31;30.41
2036;BME280;23642;42.658;23.350;2023-10-09T12:13:23;55567.47;;;-146.31;30.53
2036;BME280;23642;42.658;23.350;2023-10-09T12:15:53;55559.22;;;-146.31;30.27
2036;BME280;23642;42.658;23.350;2023-10-09T12:18:26;55584.00;;;-146.31;30.14
2036;BME280;23642;42.658;23.350;2023-10-09T12:21:12;55604.66;;;-146.31;30.22
2036;BME280;23642;42.658;23.350;2023-10-09T12:27:13;55579.88;;;-146.31;29.58
2036;BME280;23642;42.658;23.350;2023-10-09T12:29:52;55590.19;;;-146.31;29.91
2036;BME280;23642;42.658;23.350;2023-10-09T12:32:39;55579.88;;;-146.31;29.75
2036;BME280;23642;42.658;23.350;2023-10-09T12:35:12;55596.41;;;-146.31;29.61
2036;BME280;23642;42.658;23.350;2023-10-09T12:37:46;55590.19;;;-146.31;29.20
2036;BME280;23642;42.658;23.350;2023-10-09T12:40:16;55577.81;;;-146.31;29.24
2036;BME280;23642;42.658;23.350;2023-10-09T12:42:50;55615.00;;;-146.31;29.04
2036;BME280;23642;42.658;23.350;2023-10-09T12:45:30;55581.94;;;-146.31;28.67
2036;BME280;23642;42.658;23.350;2023-10-09T12:48:48;55594.34;;;-146.31;27.77
2036;BME280;23642;42.658;23.350;2023-10-09T12:51:40;55615.00;;;-146.31;27.58
2036;BME280;23642;42.658;23.350;2023-10-09T12:54:12;55569.53;;;-146.31;27.87
2036;BME280;23642;42.658;23.350;2023-10-09T12:59:24;55662.50;;;-146.31;26.02
2036;BME280;23642;42.658;23.350;2023-10-09T13:01:56;55621.19;;;-146.31;26.72
2036;BME280;23642;42.658;23.350;2023-10-09T13:04:35;55637.72;;;-146.31;26.21
2036;BME280;23642;42.658;23.350;2023-10-09T13:07:06;55625.31;;;-146.31;26.26
2036;BME280;23642;42.658;23.350;2023-10-09T13:09:33;55658.38;;;-146.31;25.66
2036;BME280;23642;42.658;23.350;2023-10-09T13:12:08;55645.97;;;-146.31;25.75
2036;BME280;23642;42.658;23.350;2023-10-09T13:14:37;55654.22;;;-146.31;25.46
2036;BME280;23642;42.658;23.350;2023-10-09T13:17:07;55697.63;;;-146.31;25.44
2036;BME280;23642;42.658;23.350;2023-10-09T13:19:49;55666.63;;;-146.31;25.69
2036;BME280;23642;42.658;23.350;2023-10-09T13:22:16;55656.31;;;-146.31;26.23
2036;BME280;23642;42.658;23.350;2023-10-09T13:24:43;55600.53;;;-146.31;26.61
2036;BME280;23642;42.658;23.350;2023-10-09T13:27:16;55606.72;;;-146.31;27.04
2036;BME280;23642;42.658;23.350;2023-10-09T13:29:46;55615.00;;;-146.31;26.62
2036;BME280;23642;42.658;23.350;2023-10-09T13:32:23;55619.13;;;-146.31;26.75
2036;BME280;23642;42.658;23.350;2023-10-09T13:34:51;55612.91;;;-146.31;26.81
2036;BME280;23642;42.658;23.350;2023-10-09T13:37:27;55645.97;;;-146.31;25.82
2036;BME280;23642;42.658;23.350;2023-10-09T13:39:57;55650.09;;;-146.31;25.27
2036;BME280;23642;42.658;23.350;2023-10-09T13:42:24;55676.97;;;-146.31;24.61